Time;durP1;ratioP1;P1;durP2;ratioP2;P2;SDS_P1;SDS_P2;PMS_P1;PMS_P2;Temp;Humidity;BMP_temperature;BMP_pressure;BME280_temperature;BME280_humidity;BME280_pressure;Samples;Min_cycle;Max_cycle;Signal;HPM_P1;HPM_P2
2022/07/28 00:01:46;;;;;;;1.05;0.70;;;19.20;76.90;;;;;;5093303;28;20482;-66
2022/07/28 00:04:12;;;;;;;1.63;0.63;;;19.20;77.30;;;;;;5092081;28;20089;-66
2022/07/28 00:06:37;;;;;;;2.60;1.00;;;19.20;77.50;;;;;;5112042;28;20050;-66
2022/07/28 00:09:03;;;;;;;1.52;0.93;;;19.10;77.70;;;;;;5112692;28;20042;-66
2022/07/28 00:11:29;;;;;;;1.40;0.65;;;19.00;78.00;;;;;;5111205;28;20079;-75
2022/07/28 00:13:55;;;;;;;1.80;1.02;;;19.00;77.60;;;;;;5111652;28;20086;-67
2022/07/28 00:16:20;;;;;;;3.47;0.93;;;19.10;77.50;;;;;;5111045;28;20469;-68
2022/07/28 00:18:46;;;;;;;1.10;0.75;;;19.10;77.30;;;;;;5111917;28;20118;-67
2022/07/28 00:21:12;;;;;;;1.55;1.40;;;19.00;77.50;;;;;;5113252;28;20074;-67
2022/07/28 00:23:38;;;;;;;2.67;0.82;;;18.90;77.70;;;;;;5112143;28;20067;-67
2022/07/28 00:26:04;;;;;;;0.80;0.70;;;18.80;78.00;;;;;;5094084;28;20061;-66
2022/07/28 00:28:29;;;;;;;2.20;1.38;;;18.70;78.40;;;;;;5094032;28;20027;-67
2022/07/28 00:30:55;;;;;;;3.47;1.00;;;18.70;78.60;;;;;;5094234;28;20089;-66
2022/07/28 00:33:21;;;;;;;3.75;0.80;;;18.80;78.10;;;;;;5112241;28;20398;-75
2022/07/28 00:35:47;;;;;;;4.22;1.00;;;18.80;77.90;;;;;;5112371;28;20504;-66
2022/07/28 00:38:12;;;;;;;2.00;0.90;;;18.70;78.20;;;;;;5094127;28;20097;-66
2022/07/28 00:43:23;;;;;;;4.63;1.00;;;18.70;78.00;;;;;;5116371;28;20051;-66
2022/07/28 00:45:48;;;;;;;2.67;0.95;;;18.70;78.00;;;;;;5097816;28;20123;-66
2022/07/28 00:48:14;;;;;;;1.30;0.80;;;18.90;78.10;;;;;;5116953;28;20047;-66
2022/07/28 00:50:40;;;;;;;1.60;0.80;;;18.80;78.10;;;;;;5110874;28;20080;-68
2022/07/28 00:53:06;;;;;;;0.73;0.65;;;18.70;78.80;;;;;;5093767;28;20043;-66
2022/07/28 00:55:32;;;;;;;2.75;0.68;;;18.60;79.10;;;;;;5095362;28;20039;-67
2022/07/28 00:57:59;;;;;;;3.80;1.17;;;18.50;79.20;;;;;;5077594;28;20051;-66
2022/07/28 01:00:25;;;;;;;0.75;0.75;;;18.50;79.30;;;;;;5096127;28;20039;-66
2022/07/28 01:02:51;;;;;;;1.60;0.90;;;18.50;79.20;;;;;;5109813;28;20048;-66
2022/07/28 01:05:18;;;;;;;2.55;0.90;;;18.60;86.40;;;;;;5116114;28;20399;-66
2022/07/28 01:07:59;;;;;;;0.95;0.80;;;18.50;79.40;;;;;;5097326;28;20043;-67
2022/07/28 01:10:52;;;;;;;1.35;0.88;;;18.60;79.00;;;;;;5116269;28;20050;-67
2022/07/28 01:13:24;;;;;;;3.03;1.13;;;18.50;79.40;;;;;;5115563;28;20100;-67
2022/07/28 01:16:00;;;;;;;2.95;0.93;;;18.40;79.30;;;;;;5116239;28;20041;-66
2022/07/28 01:18:32;;;;;;;8.27;1.00;;;18.50;80.00;;;;;;5116360;28;20036;-67
2022/07/28 01:21:07;;;;;;;1.67;1.20;;;18.40;80.00;;;;;;5097930;28;20078;-73
2022/07/28 01:23:32;;;;;;;2.58;0.90;;;18.40;79.80;;;;;;5114791;28;20039;-66
2022/07/28 01:26:23;;;;;;;1.63;1.00;;;18.40;80.00;;;;;;5096828;28;20475;-66
2022/07/28 01:29:19;;;;;;;1.15;0.82;;;18.40;80.00;;;;;;5097862;28;20042;-66
2022/07/28 01:31:58;;;;;;;1.73;0.90;;;18.30;80.50;;;;;;5116327;28;20491;-66
2022/07/28 01:34:30;;;;;;;2.95;1.20;;;18.20;80.60;;;;;;5116058;28;20062;-66
2022/07/28 01:37:04;;;;;;;2.88;0.93;;;18.00;81.10;;;;;;5115773;28;20407;-66
2022/07/28 01:39:34;;;;;;;3.42;1.00;;;17.90;81.70;;;;;;5114778;28;20035;-67
2022/07/28 01:42:03;;;;;;;1.92;0.90;;;17.90;81.20;;;;;;5115424;28;20077;-66
2022/07/28 01:44:34;;;;;;;3.60;0.80;;;18.00;80.90;;;;;;5114672;28;20490;-66
2022/07/28 01:47:00;;;;;;;1.88;1.00;;;18.10;81.00;;;;;;5114817;28;20036;-66
2022/07/28 01:49:28;;;;;;;2.72;1.10;;;18.00;81.00;;;;;;5115451;28;20043;-67
2022/07/28 01:51:56;;;;;;;1.98;0.80;;;18.00;81.00;;;;;;5114546;28;20051;-75
2022/07/28 01:54:26;;;;;;;4.57;0.88;;;18.00;81.20;;;;;;5114291;28;20031;-66
2022/07/28 01:56:54;;;;;;;2.15;1.00;;;18.00;81.40;;;;;;5115055;28;20489;-67
2022/07/28 01:59:22;;;;;;;4.57;1.05;;;17.90;81.10;;;;;;5097244;28;20075;-66
2022/07/28 02:01:51;;;;;;;1.45;0.70;;;17.90;81.30;;;;;;5097180;28;20074;-66
2022/07/28 02:04:20;;;;;;;1.67;1.08;;;17.90;81.20;;;;;;5096165;28;20075;-66
2022/07/28 02:06:46;;;;;;;2.20;0.93;;;18.00;81.20;;;;;;5096317;28;20375;-73
2022/07/28 02:09:13;;;;;;;1.95;0.93;;;18.10;81.40;;;;;;5113166;28;20074;-66
2022/07/28 02:11:40;;;;;;;2.85;1.00;;;18.10;81.60;;;;;;5114565;28;20079;-66
2022/07/28 02:14:22;;;;;;;1.58;1.00;;;18.00;81.50;;;;;;5096933;28;20448;-67
2022/07/28 02:17:02;;;;;;;3.60;0.88;;;18.00;82.10;;;;;;5115303;28;20112;-66
2022/07/28 02:19:30;;;;;;;4.95;1.17;;;18.10;82.00;;;;;;5114805;28;20054;-67
2022/07/28 02:21:56;;;;;;;1.05;0.80;;;18.10;82.40;;;;;;5096336;28;20426;-67
2022/07/28 02:24:25;;;;;;;2.35;1.10;;;18.00;82.20;;;;;;5114239;28;20097;-66
2022/07/28 02:27:02;;;;;;;10.50;1.58;;;17.90;82.40;;;;;;5114288;28;20031;-77
2022/07/28 02:29:32;;;;;;;1.75;1.10;;;17.90;82.40;;;;;;5113757;28;20417;-66
2022/07/28 02:32:11;;;;;;;1.35;0.77;;;17.90;82.80;;;;;;5096729;28;20047;-66
2022/07/28 02:34:38;;;;;;;2.67;1.30;;;18.00;81.70;;;;;;5096236;28;20087;-66
2022/07/28 02:37:08;;;;;;;1.50;1.00;;;18.00;82.30;;;;;;5096000;28;20498;-75
2022/07/28 02:39:48;;;;;;;1.88;1.30;;;17.70;83.10;;;;;;5113526;28;20090;-67
2022/07/28 02:42:25;;;;;;;3.75;1.17;;;17.60;83.30;;;;;;5114685;28;20502;-67
2022/07/28 02:44:59;;;;;;;4.30;1.15;;;17.70;83.80;;;;;;5113598;28;20039;-67
2022/07/28 02:47:29;;;;;;;1.10;0.93;;;17.60;83.70;;;;;;5096264;28;20541;-66
2022/07/28 02:49:58;;;;;;;1.27;0.93;;;17.70;84.40;;;;;;5096480;28;20127;-66
2022/07/28 02:52:26;;;;;;;3.80;0.90;;;;;;;;;;5095678;28;20054;-72
2022/07/28 02:54:53;;;;;;;1.90;1.00;;;17.50;82.90;;;;;;5113302;28;20075;-66
2022/07/28 02:57:20;;;;;;;1.55;0.98;;;17.40;85.10;;;;;;5114012;28;20038;-82
2022/07/28 02:59:48;;;;;;;3.35;1.10;;;17.40;84.80;;;;;;5112133;28;20043;-67
2022/07/28 03:02:17;;;;;;;4.85;0.95;;;17.70;83.00;;;;;;5112226;28;20040;-71
2022/07/28 03:05:00;;;;;;;8.63;1.33;;;17.60;82.80;;;;;;5093716;28;20042;-66
2022/07/28 03:07:27;;;;;;;2.70;1.08;;;17.60;82.80;;;;;;5095811;28;20036;-66
2022/07/28 03:09:53;;;;;;;2.83;1.30;;;17.30;83.70;;;;;;5113788;28;20072;-66
2022/07/28 03:12:19;;;;;;;3.45;1.42;;;17.20;84.00;;;;;;5113884;28;20092;-68
2022/07/28 03:14:45;;;;;;;3.97;1.83;;;17.30;83.90;;;;;;5113224;28;20050;-66
2022/07/28 03:17:11;;;;;;;1.25;0.82;;;17.30;84.70;;;;;;5114130;28;20403;-68
2022/07/28 03:19:37;;;;;;;1.30;1.20;;;17.30;84.50;;;;;;5113909;28;20032;-66
2022/07/28 03:22:04;;;;;;;1.67;1.20;;;17.20;85.20;;;;;;5113382;28;20036;-66
2022/07/28 03:24:39;;;;;;;4.82;1.27;;;17.30;88.50;;;;;;5113303;28;20039;-66
2022/07/28 03:27:42;;;;;;;1.83;1.40;;;17.10;85.70;;;;;;5095298;28;20036;-66
2022/07/28 03:30:12;;;;;;;2.55;1.30;;;17.10;86.30;;;;;;5112449;28;20069;-66
2022/07/28 03:32:44;;;;;;;1.95;1.25;;;17.20;86.00;;;;;;5113582;28;20051;-65
2022/07/28 03:35:10;;;;;;;4.05;1.40;;;17.20;86.00;;;;;;5112549;28;20043;-67
2022/07/28 03:37:54;;;;;;;3.30;1.92;;;17.30;85.90;;;;;;5112883;28;20043;-71
2022/07/28 03:40:25;;;;;;;1.73;1.35;;;17.20;85.90;;;;;;5112636;28;20089;-66
2022/07/28 03:42:51;;;;;;;;;;;17.20;85.90;;;;;;5114008;28;20051;-66
2022/07/28 03:45:17;;;;;;;1.50;1.40;;;17.30;85.80;;;;;;5113498;28;19915;-66
2022/07/28 03:47:55;;;;;;;4.57;1.35;;;17.40;85.50;;;;;;5113636;28;20506;-66
2022/07/28 03:50:26;;;;;;;1.33;1.20;;;17.50;89.50;;;;;;5113554;28;20044;-66
2022/07/28 03:52:53;;;;;;;4.15;1.20;;;17.20;86.20;;;;;;5112558;28;20405;-68
2022/07/28 03:55:19;;;;;;;1.20;0.95;;;17.10;86.60;;;;;;5113415;28;20027;-67
2022/07/28 03:57:45;;;;;;;1.67;1.35;;;17.00;86.80;;;;;;5113166;28;20119;-66
2022/07/28 04:00:13;;;;;;;1.65;1.40;;;17.00;87.30;;;;;;5113022;28;20070;-66
2022/07/28 04:02:42;;;;;;;2.25;1.30;;;17.00;87.30;;;;;;5113167;28;20036;-66
2022/07/28 04:05:12;;;;;;;2.05;1.33;;;17.00;87.70;;;;;;5112819;28;20490;-65
2022/07/28 04:07:39;;;;;;;2.13;1.17;;;17.00;88.10;;;;;;5112483;28;20379;-66
2022/07/28 04:10:06;;;;;;;1.70;1.23;;;16.90;87.90;;;;;;5113239;28;20043;-66
2022/07/28 04:12:51;;;;;;;2.95;1.52;;;17.00;87.80;;;;;;5093991;28;20108;-66
2022/07/28 04:15:18;;;;;;;2.38;1.52;;;17.00;88.30;;;;;;5116080;28;20036;-75
2022/07/28 04:17:44;;;;;;;2.90;1.20;;;16.80;88.50;;;;;;5120045;28;20054;-65
2022/07/28 04:20:11;;;;;;;2.83;1.20;;;16.50;89.20;;;;;;5120148;28;20156;-66
2022/07/28 04:22:37;;;;;;;4.50;1.58;;;16.60;89.20;;;;;;5101462;28;20130;-66
2022/07/28 04:25:04;;;;;;;3.92;1.27;;;16.80;88.90;;;;;;5101782;28;20114;-70
2022/07/28 04:27:29;;;;;;;1.95;1.13;;;16.90;88.70;;;;;;5101720;28;20070;-66
2022/07/28 04:29:55;;;;;;;2.50;1.23;;;17.00;87.30;;;;;;5120014;28;20047;-66
2022/07/28 04:32:21;;;;;;;1.35;1.05;;;;;;;;;;5119960;28;20047;-67
2022/07/28 04:34:48;;;;;;;1.40;1.00;;;17.20;95.80;;;;;;5120000;28;20027;-66
2022/07/28 04:37:14;;;;;;;2.05;1.30;;;17.20;88.80;;;;;;5120119;28;20401;-66
2022/07/28 04:39:40;;;;;;;2.45;1.48;;;17.10;88.10;;;;;;5120069;28;20036;-66
2022/07/28 04:42:06;;;;;;;1.65;1.33;;;17.10;87.30;;;;;;5119866;28;20127;-71
2022/07/28 04:44:32;;;;;;;2.90;1.40;;;16.80;88.50;;;;;;5119483;28;20514;-66
2022/07/28 04:46:58;;;;;;;2.95;1.27;;;16.60;93.30;;;;;;5132630;27;20064;-67
2022/07/28 04:49:24;;;;;;;3.30;1.40;;;16.70;89.40;;;;;;5117769;28;20043;-66
2022/07/28 04:51:51;;;;;;;3.92;1.45;;;16.80;89.10;;;;;;5101446;28;20514;-66
2022/07/28 04:54:17;;;;;;;1.83;1.15;;;16.70;92.60;;;;;;5116318;27;20058;-66
2022/07/28 04:56:43;;;;;;;1.60;1.20;;;16.70;94.30;;;;;;5100069;28;20046;-67
2022/07/28 04:59:09;;;;;;;2.35;1.40;;;16.80;94.30;;;;;;5098498;27;20055;-66
2022/07/28 05:01:42;;;;;;;1.58;1.30;;;16.80;94.20;;;;;;5129887;27;20047;-66
2022/07/28 05:04:08;;;;;;;1.02;0.90;;;16.80;92.30;;;;;;5120614;27;20032;-66
2022/07/28 05:06:36;;;;;;;3.90;1.65;;;16.90;94.00;;;;;;5117608;27;20038;-67
2022/07/28 05:09:02;;;;;;;3.55;1.40;;;16.80;93.20;;;;;;5118897;28;20050;-67
2022/07/28 05:11:28;;;;;;;7.25;1.27;;;16.80;93.80;;;;;;5118460;28;20055;-79
2022/07/28 05:13:54;;;;;;;4.30;1.38;;;16.80;93.80;;;;;;5118775;28;20050;-66
2022/07/28 05:16:20;;;;;;;4.10;1.10;;;16.90;89.70;;;;;;5118473;28;20527;-66
2022/07/28 05:18:46;;;;;;;1.35;1.00;;;17.00;89.80;;;;;;5118856;28;20036;-66
2022/07/28 05:21:12;;;;;;;2.33;1.25;;;17.20;89.00;;;;;;5099826;28;20036;-66
2022/07/28 05:23:38;;;;;;;1.80;1.40;;;;;;;;;;5100874;28;20177;-66
2022/07/28 05:26:05;;;;;;;2.03;1.50;;;17.60;89.10;;;;;;5099418;28;20046;-67
2022/07/28 05:28:32;;;;;;;9.30;1.50;;;17.60;89.80;;;;;;5116095;28;20506;-66
2022/07/28 05:30:57;;;;;;;1.70;1.25;;;17.40;90.00;;;;;;5097470;28;20581;-80
2022/07/28 05:33:23;;;;;;;10.32;2.35;;;17.10;90.00;;;;;;5096717;28;20036;-81
2022/07/28 05:35:56;;;;;;;4.57;1.63;;;17.10;90.30;;;;;;5115076;28;20510;-66
2022/07/28 05:38:22;;;;;;;7.18;1.60;;;17.10;90.20;;;;;;5114985;28;20046;-66
2022/07/28 05:40:49;;;;;;;5.32;1.60;;;17.30;90.20;;;;;;5097876;28;20043;-67
2022/07/28 05:43:15;;;;;;;2.75;1.52;;;17.40;90.50;;;;;;5097942;28;20038;-67
2022/07/28 05:45:41;;;;;;;3.63;1.52;;;17.60;90.60;;;;;;5097856;28;20040;-68
2022/07/28 05:48:06;;;;;;;3.42;1.00;;;17.80;90.70;;;;;;5116226;28;20520;-66
2022/07/28 05:50:32;;;;;;;5.72;1.38;;;18.10;90.90;;;;;;5098011;28;20119;-67
2022/07/28 05:52:58;;;;;;;1.88;1.23;;;18.40;90.90;;;;;;5115746;28;20051;-76
2022/07/28 05:55:24;;;;;;;2.60;1.23;;;19.10;88.10;;;;;;5115732;28;20089;-71
2022/07/28 05:57:50;;;;;;;2.63;1.50;;;19.50;85.50;;;;;;5115990;28;20536;-67
2022/07/28 06:00:21;;;;;;;2.42;0.95;;;19.80;84.90;;;;;;5115884;28;20498;-67
2022/07/28 06:02:48;;;;;;;2.15;1.30;;;20.10;85.50;;;;;;5115682;28;20038;-67
2022/07/28 06:05:16;;;;;;;3.03;1.40;;;19.70;87.20;;;;;;5097294;28;20380;-73
2022/07/28 06:07:42;;;;;;;2.05;1.20;;;20.30;86.30;;;;;;5116448;28;20071;-71
2022/07/28 06:10:09;;;;;;;2.58;1.27;;;20.20;86.00;;;;;;5115563;28;20502;-69
2022/07/28 06:12:42;;;;;;;1.92;1.30;;;20.60;85.70;;;;;;5115209;28;20054;-69
2022/07/28 06:15:20;;;;;;;2.60;1.30;;;20.80;85.90;;;;;;5115176;28;20050;-67
2022/07/28 06:17:47;;;;;;;2.35;1.40;;;21.00;84.10;;;;;;5115216;28;20050;-66
2022/07/28 06:20:14;;;;;;;3.92;1.20;;;21.30;84.10;;;;;;5115125;28;20035;-68
2022/07/28 06:22:46;;;;;;;4.30;1.38;;;21.10;83.20;;;;;;5113537;28;20043;-67
2022/07/28 06:25:17;;;;;;;2.92;1.20;;;20.70;84.40;;;;;;5106951;28;20035;-73
2022/07/28 06:27:46;;;;;;;2.05;1.75;;;20.60;84.20;;;;;;5094819;28;20036;-69
2022/07/28 06:30:13;;;;;;;1.90;1.00;;;20.80;83.10;;;;;;5094833;28;20119;-74
2022/07/28 06:32:38;;;;;;;4.63;1.10;;;20.60;82.20;;;;;;5094634;28;20139;-67
2022/07/28 06:35:05;;;;;;;1.27;1.08;;;21.30;82.80;;;;;;5094765;28;20144;-72
2022/07/28 06:37:31;;;;;;;4.78;1.23;;;21.80;81.60;;;;;;5076168;28;20059;-76
2022/07/28 06:39:57;;;;;;;2.22;1.13;;;22.00;83.30;;;;;;5094505;28;20035;-67
2022/07/28 06:42:22;;;;;;;2.15;1.48;;;21.90;83.00;;;;;;5094589;28;20127;-77
2022/07/28 06:44:50;;;;;;;1.70;1.30;;;;;;;;;;5094542;28;20044;-67
2022/07/28 06:47:16;;;;;;;7.15;1.63;;;22.10;82.70;;;;;;5094470;28;20046;-81
2022/07/28 06:49:42;;;;;;;1.70;1.13;;;22.30;84.20;;;;;;5094426;28;20036;-73
2022/07/28 06:52:08;;;;;;;2.35;1.20;;;22.30;84.70;;;;;;5094368;28;20063;-67
2022/07/28 06:54:34;;;;;;;3.28;1.60;;;22.10;83.90;;;;;;5094413;28;20411;-68
2022/07/28 06:56:59;;;;;;;1.65;1.00;;;22.10;84.40;;;;;;5076039;28;20086;-67
2022/07/28 06:59:25;;;;;;;1.80;1.15;;;22.50;83.80;;;;;;5075961;28;20036;-67
2022/07/28 07:01:51;;;;;;;3.92;1.30;;;22.50;82.50;;;;;;5094052;28;20514;-67
2022/07/28 07:04:17;;;;;;;2.22;0.90;;;22.50;82.30;;;;;;5094299;28;20036;-67
2022/07/28 07:06:43;;;;;;;1.42;1.15;;;22.30;81.50;;;;;;5094037;28;20044;-70
2022/07/28 07:09:09;;;;;;;3.03;0.90;;;22.60;82.10;;;;;;5075867;28;20038;-67
2022/07/28 07:11:36;;;;;;;1.83;1.00;;;22.70;80.20;;;;;;5075666;28;20048;-67
2022/07/28 07:14:02;;;;;;;2.90;1.27;;;22.80;83.40;;;;;;5093954;28;20040;-79
2022/07/28 07:16:27;;;;;;;1.90;1.20;;;23.30;81.40;;;;;;5093859;28;20495;-67
2022/07/28 07:18:54;;;;;;;3.35;1.13;;;23.50;78.20;;;;;;5094018;28;20043;-82
2022/07/28 07:21:20;;;;;;;1.67;0.93;;;23.80;78.60;;;;;;5093908;28;20039;-67
2022/07/28 07:23:46;;;;;;;1.15;0.95;;;23.90;77.90;;;;;;5093965;28;20089;-67
2022/07/28 07:26:12;;;;;;;2.13;1.10;;;23.80;77.90;;;;;;5093811;28;20064;-67
2022/07/28 07:28:40;;;;;;;1.63;1.13;;;24.10;77.80;;;;;;5093717;28;20447;-67
2022/07/28 07:31:06;;;;;;;2.15;1.25;;;24.20;77.00;;;;;;5093444;28;20082;-67
2022/07/28 07:33:32;;;;;;;2.33;1.20;;;24.20;76.20;;;;;;5093476;28;20072;-68
2022/07/28 07:35:57;;;;;;;4.32;1.05;;;24.00;77.60;;;;;;5075308;28;20494;-67
2022/07/28 07:38:23;;;;;;;0.75;0.75;;;24.30;76.00;;;;;;5096098;28;20050;-69
2022/07/28 07:40:50;;;;;;;2.25;0.85;;;24.40;74.40;;;;;;5092656;28;20084;-67
2022/07/28 07:43:17;;;;;;;0.90;0.70;;;24.70;75.00;;;;;;5107432;28;20498;-66
2022/07/28 07:45:43;;;;;;;1.13;0.88;;;24.90;74.30;;;;;;5093502;28;20398;-71
2022/07/28 07:48:09;;;;;;;4.25;1.45;;;25.20;73.90;;;;;;5111094;28;20031;-67
2022/07/28 07:50:36;;;;;;;4.47;1.20;;;25.30;73.00;;;;;;5111030;28;20043;-71
2022/07/28 07:53:02;;;;;;;1.48;1.15;;;25.20;72.10;;;;;;5110825;28;20044;-67
2022/07/28 07:55:27;;;;;;;1.90;1.10;;;25.20;72.30;;;;;;5111492;28;20445;-72
2022/07/28 07:57:53;;;;;;;1.50;0.95;;;25.30;72.50;;;;;;5093162;28;20520;-76
2022/07/28 08:00:20;;;;;;;1.08;0.90;;;25.40;71.90;;;;;;5092493;28;20455;-67
2022/07/28 08:02:46;;;;;;;2.00;1.20;;;25.90;73.20;;;;;;5111356;28;20036;-68
2022/07/28 08:05:12;;;;;;;1.75;1.20;;;26.10;72.20;;;;;;5110975;28;20081;-67
2022/07/28 08:07:38;;;;;;;1.50;0.88;;;26.20;72.50;;;;;;5093517;28;20047;-67
2022/07/28 08:10:04;;;;;;;1.95;1.23;;;26.20;70.90;;;;;;5112512;28;20494;-68
2022/07/28 08:12:30;;;;;;;3.00;1.10;;;25.70;70.60;;;;;;5094992;28;20074;-68
2022/07/28 08:14:56;;;;;;;2.60;0.82;;;25.70;70.60;;;;;;5110916;28;20070;-68
2022/07/28 08:17:22;;;;;;;2.92;1.00;;;25.80;71.10;;;;;;5111123;28;20043;-74
2022/07/28 08:19:47;;;;;;;3.38;0.93;;;26.40;71.80;;;;;;5111727;28;20735;-68
2022/07/28 08:22:14;;;;;;;2.63;1.45;;;26.40;70.80;;;;;;5093575;28;20040;-71
2022/07/28 08:24:41;;;;;;;2.47;0.98;;;26.60;71.30;;;;;;5111267;28;20035;-68
2022/07/28 08:27:07;;;;;;;1.77;1.10;;;26.80;70.90;;;;;;5111412;28;20394;-68
2022/07/28 08:29:33;;;;;;;1.02;0.93;;;26.90;70.30;;;;;;5092733;28;20100;-68
2022/07/28 08:32:01;;;;;;;1.90;1.10;;;26.80;69.90;;;;;;5112988;28;20086;-68
2022/07/28 08:34:27;;;;;;;1.25;1.00;;;27.20;71.40;;;;;;5112833;28;20039;-75
2022/07/28 08:36:53;;;;;;;1.63;0.80;;;26.90;69.40;;;;;;5113000;28;20039;-75
2022/07/28 08:39:19;;;;;;;1.23;1.00;;;27.10;70.10;;;;;;5111425;28;20082;-69
2022/07/28 08:41:53;;;;;;;1.70;0.85;;;27.40;69.70;;;;;;5110953;28;20430;-68
2022/07/28 08:44:23;;;;;;;1.70;1.05;;;27.20;69.80;;;;;;5112330;28;20096;-71
2022/07/28 08:46:49;;;;;;;4.10;0.90;;;26.90;70.10;;;;;;5093440;28;20126;-68
2022/07/28 08:49:16;;;;;;;0.98;0.85;;;26.70;69.20;;;;;;5110386;28;20506;-69
2022/07/28 08:51:42;;;;;;;0.80;0.80;;;27.00;69.80;;;;;;5110632;28;20099;-75
2022/07/28 08:54:10;;;;;;;1.35;0.85;;;27.20;69.70;;;;;;5112421;28;20047;-69
2022/07/28 08:56:41;;;;;;;4.30;1.20;;;27.50;68.30;;;;;;5112628;28;20388;-75
2022/07/28 08:59:07;;;;;;;2.25;1.00;;;27.40;66.70;;;;;;5087568;28;20181;-67
2022/07/28 09:01:33;;;;;;;1.85;0.90;;;27.70;68.20;;;;;;5091139;28;20127;-72
2022/07/28 09:04:00;;;;;;;2.58;1.00;;;28.30;67.40;;;;;;5078066;28;20126;-72
2022/07/28 09:06:26;;;;;;;1.75;0.80;;;27.60;66.10;;;;;;5096341;28;20047;-72
2022/07/28 09:08:52;;;;;;;0.77;0.75;;;27.70;65.40;;;;;;5078064;28;20043;-66
2022/07/28 09:11:17;;;;;;;1.38;0.93;;;27.70;64.80;;;;;;5096193;28;20131;-68
2022/07/28 09:13:43;;;;;;;1.80;0.90;;;27.60;64.70;;;;;;5096314;28;20032;-67
2022/07/28 09:16:11;;;;;;;4.55;0.82;;;27.30;64.10;;;;;;5078338;28;20082;-68
2022/07/28 09:18:38;;;;;;;1.63;0.70;;;27.80;66.00;;;;;;5111845;28;20032;-67
2022/07/28 09:21:03;;;;;;;1.40;0.95;;;27.70;64.90;;;;;;5096056;28;20035;-67
2022/07/28 09:23:47;;;;;;;1.00;0.75;;;27.90;65.70;;;;;;5096121;28;20036;-67
2022/07/28 09:26:14;;;;;;;1.40;1.00;;;27.80;64.60;;;;;;5095959;28;20452;-68
2022/07/28 09:28:52;;;;;;;1.27;0.95;;;27.80;64.10;;;;;;5095873;28;20032;-67
2022/07/28 09:31:19;;;;;;;1.05;0.80;;;27.70;65.90;;;;;;5095949;28;20115;-69
2022/07/28 09:34:00;;;;;;;1.42;0.80;;;28.30;66.30;;;;;;5095921;28;20059;-67
2022/07/28 09:36:29;;;;;;;1.05;0.82;;;28.30;65.70;;;;;;5095760;28;20048;-67
2022/07/28 09:38:58;;;;;;;1.80;0.80;;;28.80;65.10;;;;;;5095539;28;20044;-67
2022/07/28 09:41:24;;;;;;;3.50;0.98;;;28.70;62.90;;;;;;5095534;28;20043;-67
2022/07/28 09:43:51;;;;;;;4.72;1.00;;;28.70;63.40;;;;;;5095887;28;20048;-68
2022/07/28 09:46:23;;;;;;;3.47;1.10;;;28.30;63.30;;;;;;5095560;28;20051;-68
2022/07/28 09:48:48;;;;;;;0.93;0.88;;;28.20;63.50;;;;;;5095500;28;20050;-69
2022/07/28 09:51:20;;;;;;;1.70;0.90;;;28.60;64.10;;;;;;5095582;28;20130;-72
2022/07/28 09:53:46;;;;;;;1.17;0.80;;;29.20;63.10;;;;;;5095592;28;20071;-72
2022/07/28 09:56:12;;;;;;;2.22;0.80;;;29.10;62.40;;;;;;5095424;28;20048;-70
2022/07/28 09:58:39;;;;;;;2.60;0.80;;;;;;;;;;5095036;28;20041;-69
2022/07/28 10:01:12;;;;;;;1.23;0.95;;;29.50;88.20;;;;;;5094981;28;20410;-68
2022/07/28 10:03:42;;;;;;;2.30;0.70;;;29.20;72.40;;;;;;5114700;28;20090;-68
2022/07/28 10:06:13;;;;;;;1.65;1.02;;;29.00;72.00;;;;;;5115568;28;20201;-68
2022/07/28 10:08:46;;;;;;;1.08;0.80;;;28.90;68.90;;;;;;5115158;28;20043;-69
2022/07/28 10:11:16;;;;;;;2.35;1.13;;;29.00;69.10;;;;;;5115456;28;20593;-68
2022/07/28 10:14:01;;;;;;;3.33;1.08;;;29.00;75.70;;;;;;5114921;28;20050;-67
2022/07/28 10:16:41;;;;;;;1.77;1.00;;;29.30;76.20;;;;;;5115489;28;20050;-68
2022/07/28 10:19:07;;;;;;;5.90;0.80;;;29.30;88.50;;;;;;5115370;28;20035;-68
2022/07/28 10:21:42;;;;;;;0.88;0.73;;;29.20;83.90;;;;;;5115571;28;20551;-67
2022/07/28 10:24:30;;;;;;;4.10;0.88;;;28.80;85.80;;;;;;5114768;28;20081;-73
2022/07/28 10:26:58;;;;;;;2.42;0.90;;;29.30;79.70;;;;;;5107447;27;20044;-68
2022/07/28 10:29:26;;;;;;;1.13;0.70;;;28.20;79.40;;;;;;5092952;28;20063;-68
2022/07/28 10:31:56;;;;;;;1.30;0.73;;;28.60;77.60;;;;;;5079954;28;20413;-69
2022/07/28 10:34:44;;;;;;;2.38;1.00;;;28.50;76.90;;;;;;5110987;28;20643;-69
2022/07/28 10:37:19;;;;;;;1.45;0.80;;;28.60;75.70;;;;;;5111201;28;20039;-67
2022/07/28 10:39:55;;;;;;;1.77;0.70;;;28.70;75.60;;;;;;5094242;28;20096;-66
2022/07/28 10:42:21;;;;;;;5.47;1.10;;;28.70;74.70;;;;;;5114989;28;20071;-67
2022/07/28 10:44:47;;;;;;;1.77;0.98;;;29.30;75.00;;;;;;5112966;28;20470;-67
2022/07/28 10:47:14;;;;;;;1.70;0.90;;;29.50;74.10;;;;;;5112955;28;20449;-68
2022/07/28 10:49:40;;;;;;;2.58;1.13;;;29.10;77.80;;;;;;5113039;28;20368;-67
2022/07/28 10:52:07;;;;;;;1.20;0.70;;;28.80;83.80;;;;;;5112461;28;20042;-66
2022/07/28 10:54:54;;;;;;;1.45;0.82;;;29.10;79.70;;;;;;5112306;28;20058;-67
2022/07/28 10:57:22;;;;;;;1.25;0.80;;;29.20;71.00;;;;;;5112469;28;20067;-66
2022/07/28 11:00:16;;;;;;;4.05;0.98;;;;;;;;;;5113313;28;20050;-67
2022/07/28 11:02:49;;;;;;;1.23;0.90;;;29.10;83.30;;;;;;5112621;28;20047;-67
2022/07/28 11:05:24;;;;;;;1.33;0.90;;;;;;;;;;5111142;28;20394;-67
2022/07/28 11:07:50;;;;;;;3.30;1.05;;;;;;;;;;5112500;28;20096;-67
2022/07/28 11:10:17;;;;;;;2.13;0.98;;;29.80;59.50;;;;;;5111610;28;20053;-67
2022/07/28 11:12:52;;;;;;;1.67;1.25;;;29.80;59.90;;;;;;5094105;28;20051;-69
2022/07/28 11:15:32;;;;;;;1.17;1.00;;;29.90;61.70;;;;;;5111637;28;20046;-67
2022/07/28 11:18:02;;;;;;;;;;;30.00;60.30;;;;;;5112451;28;20044;-67
2022/07/28 11:20:55;;;;;;;2.22;1.00;;;29.40;59.10;;;;;;5112410;28;19964;-67
2022/07/28 11:23:42;;;;;;;2.60;0.70;;;29.00;59.50;;;;;;5112244;28;20067;-67
2022/07/28 11:26:23;;;;;;;1.20;0.82;;;28.90;59.80;;;;;;5110683;28;20036;-67
2022/07/28 11:29:04;;;;;;;2.67;0.82;;;28.10;60.20;;;;;;5112064;28;20490;-67
2022/07/28 11:31:50;;;;;;;1.80;1.00;;;28.20;61.10;;;;;;5112039;28;20051;-68
2022/07/28 11:34:24;;;;;;;1.27;0.82;;;28.90;60.80;;;;;;5094204;28;20042;-68
2022/07/28 11:36:59;;;;;;;1.27;1.00;;;28.90;61.20;;;;;;5111845;28;20074;-67
2022/07/28 11:39:27;;;;;;;1.80;1.20;;;28.70;60.50;;;;;;5111278;28;20130;-68
2022/07/28 11:41:52;;;;;;;5.28;1.10;;;28.40;61.20;;;;;;5111433;28;20043;-66
2022/07/28 11:44:30;;;;;;;1.23;0.90;;;28.60;60.10;;;;;;5092667;28;20130;-67
2022/07/28 11:47:19;;;;;;;2.20;0.90;;;28.80;60.90;;;;;;5111243;28;20552;-67
2022/07/28 11:50:13;;;;;;;4.20;0.95;;;29.40;60.80;;;;;;5092999;28;20721;-68
2022/07/28 11:52:50;;;;;;;5.68;0.80;;;29.60;59.80;;;;;;5112344;28;20051;-68
2022/07/28 11:55:17;;;;;;;2.88;1.10;;;29.60;60.00;;;;;;5110801;28;20039;-68
2022/07/28 11:57:45;;;;;;;1.50;0.90;;;29.30;59.00;;;;;;5111666;28;20100;-68
2022/07/28 12:00:18;;;;;;;2.13;0.80;;;29.00;58.90;;;;;;5092513;28;20264;-67
2022/07/28 12:02:44;;;;;;;1.25;0.80;;;28.50;60.00;;;;;;5111207;28;20502;-67
2022/07/28 12:05:11;;;;;;;2.78;1.20;;;28.40;60.70;;;;;;5109979;28;20045;-67
2022/07/28 12:07:42;;;;;;;2.55;1.17;;;28.50;61.10;;;;;;5111078;28;20426;-67
2022/07/28 12:10:35;;;;;;;5.05;0.80;;;28.50;60.00;;;;;;5089427;28;20032;-67
2022/07/28 12:13:04;;;;;;;1.35;1.00;;;28.60;59.60;;;;;;5079193;28;20079;-67
2022/07/28 12:15:30;;;;;;;1.63;0.63;;;28.50;61.30;;;;;;5090559;28;20488;-67
2022/07/28 12:17:58;;;;;;;3.60;1.00;;;28.60;59.90;;;;;;5105864;28;20043;-67
2022/07/28 12:20:30;;;;;;;1.20;1.10;;;28.50;59.00;;;;;;5110810;28;20518;-68
2022/07/28 12:23:08;;;;;;;2.05;0.90;;;28.80;60.00;;;;;;5092596;28;20055;-68
2022/07/28 12:25:45;;;;;;;5.47;1.00;;;28.60;59.30;;;;;;5111331;28;20486;-67
2022/07/28 12:28:15;;;;;;;1.83;0.77;;;29.00;58.40;;;;;;5099868;28;20027;-69
2022/07/28 12:30:40;;;;;;;0.93;0.77;;;29.20;57.60;;;;;;5089898;28;20085;-71
2022/07/28 12:33:21;;;;;;;3.08;0.88;;;29.50;57.80;;;;;;5090355;28;20056;-69
2022/07/28 12:35:50;;;;;;;1.50;0.70;;;30.10;58.10;;;;;;5088939;28;20768;-68
2022/07/28 12:38:19;;;;;;;2.50;0.87;;;30.20;57.50;;;;;;5092080;28;20119;-68
2022/07/28 12:40:45;;;;;;;1.70;0.95;;;30.30;58.50;;;;;;5092400;28;20032;-69
2022/07/28 12:43:12;;;;;;;1.05;0.80;;;30.50;58.10;;;;;;5092377;28;20048;-70
2022/07/28 12:45:44;;;;;;;1.75;0.90;;;29.70;58.10;;;;;;5092524;28;20063;-68
2022/07/28 12:48:12;;;;;;;2.60;1.27;;;29.70;58.10;;;;;;5092794;28;20044;-69
2022/07/28 12:50:39;;;;;;;1.98;0.93;;;30.00;58.40;;;;;;5094017;28;20767;-67
2022/07/28 12:53:07;;;;;;;3.45;0.93;;;29.90;57.40;;;;;;5094580;28;20036;-70
2022/07/28 12:55:33;;;;;;;1.25;0.70;;;29.70;57.40;;;;;;5095141;28;20556;-68
2022/07/28 12:57:59;;;;;;;1.92;1.10;;;29.70;56.50;;;;;;5094872;28;20050;-68
2022/07/28 13:00:29;;;;;;;1.63;0.90;;;29.70;56.50;;;;;;5094543;28;20096;-67
2022/07/28 13:02:57;;;;;;;6.68;1.00;;;30.20;56.90;;;;;;5096492;28;20036;-68
2022/07/28 13:08:25;;;;;;;1.73;0.90;;;30.10;55.20;;;;;;5094870;28;20090;-68